createdAt,value
2022-12-03T00:00:35.157Z,40.10
2022-12-03T00:03:39.088Z,40.60
2022-12-03T00:06:41.717Z,36.47
2022-12-03T00:09:44.252Z,29.67
2022-12-03T00:12:46.847Z,35.63
2022-12-03T00:15:49.459Z,39.83
2022-12-03T00:18:53.340Z,37.65
2022-12-03T00:21:55.823Z,41.38
2022-12-03T00:24:58.329Z,36.78
2022-12-03T00:28:00.866Z,35.08
2022-12-03T00:31:03.435Z,34.88
2022-12-03T00:34:07.326Z,34.45
2022-12-03T00:37:09.841Z,35.10
2022-12-03T00:40:12.984Z,34.65
2022-12-03T00:43:15.485Z,35.22
2022-12-03T00:46:21.356Z,36.97
2022-12-03T00:49:25.661Z,35.63
2022-12-03T00:52:28.200Z,39.42
2022-12-03T00:55:30.750Z,36.05
2022-12-03T00:58:33.265Z,39.05
2022-12-03T01:01:35.885Z,37.03
2022-12-03T01:04:39.888Z,42.35
2022-12-03T01:07:42.501Z,39.75
2022-12-03T01:10:45.034Z,35.38
2022-12-03T01:13:47.527Z,38.92
2022-12-03T01:16:50.077Z,35.88
2022-12-03T01:19:53.998Z,36.25
2022-12-03T01:22:56.482Z,37.70
2022-12-03T01:25:58.973Z,36.22
2022-12-03T01:29:01.516Z,36.47
2022-12-03T01:32:19.419Z,41.83
2022-12-03T01:38:25.766Z,40.40
2022-12-03T01:41:28.491Z,37.38
2022-12-03T01:44:31.805Z,40.03
2022-12-03T01:47:35.328Z,39.78
2022-12-03T01:50:39.197Z,33.92
2022-12-03T01:53:41.873Z,37.53
2022-12-03T01:56:44.474Z,35.88
2022-12-03T01:59:46.963Z,37.05
2022-12-03T02:02:50.385Z,38.47
2022-12-03T02:05:54.298Z,35.38
2022-12-03T02:08:59.634Z,37.00
2022-12-03T02:12:02.185Z,37.35
2022-12-03T02:15:05.730Z,40.17
2022-12-03T02:18:08.289Z,37.28
2022-12-03T02:21:14.166Z,37.47
2022-12-03T02:24:19.219Z,43.60
2022-12-03T02:27:23.081Z,37.17
2022-12-03T02:30:26.230Z,41.03
2022-12-03T02:33:28.769Z,22.40
2022-12-03T02:36:31.897Z,39.70
2022-12-03T02:39:35.025Z,40.97
2022-12-03T02:42:39.237Z,40.20
2022-12-03T02:45:43.185Z,39.30
2022-12-03T02:48:45.683Z,38.85
2022-12-03T02:51:48.160Z,35.85
2022-12-03T02:54:50.705Z,40.70
2022-12-03T02:57:54.803Z,33.90
2022-12-03T03:00:57.407Z,36.05
2022-12-03T03:04:00.610Z,37.80
2022-12-03T03:07:03.110Z,38.67
2022-12-03T03:10:06.440Z,38.63
2022-12-03T03:13:11.141Z,36.05
2022-12-03T03:16:13.742Z,40.35
2022-12-03T03:19:16.322Z,35.85
2022-12-03T03:22:18.858Z,40.42
2022-12-03T03:25:22.367Z,39.20
2022-12-03T03:28:26.463Z,43.92
2022-12-03T03:31:28.961Z,35.38
2022-12-03T03:34:31.532Z,40.80
2022-12-03T03:37:34.062Z,33.28
2022-12-03T03:40:36.980Z,35.53
2022-12-03T03:43:40.858Z,32.80
2022-12-03T03:46:43.598Z,36.42
2022-12-03T03:49:47.865Z,39.72
2022-12-03T03:52:50.353Z,34.83
2022-12-03T03:55:52.847Z,34.35
2022-12-03T03:58:57.300Z,39.72
2022-12-03T04:01:59.831Z,38.08
2022-12-03T04:05:02.395Z,36.15
2022-12-03T04:08:05.253Z,34.20
2022-12-03T04:11:25.400Z,40.78
2022-12-03T04:14:29.201Z,36.80
2022-12-03T04:17:31.797Z,33.22
2022-12-03T04:20:34.336Z,35.70
2022-12-03T04:23:35.906Z,33.75
2022-12-03T04:26:55.877Z,37.67
2022-12-03T04:29:59.692Z,37.90
2022-12-03T04:33:20.144Z,35.90
2022-12-03T04:36:22.695Z,38.58
2022-12-03T04:39:25.296Z,35.30
2022-12-03T04:42:27.843Z,37.72
2022-12-03T04:45:31.749Z,39.50
2022-12-03T04:48:34.405Z,32.90
2022-12-03T04:51:36.906Z,34.55
2022-12-03T04:54:39.563Z,37.47
2022-12-03T04:57:42.073Z,34.15
2022-12-03T05:00:45.913Z,37.53
2022-12-03T05:03:48.447Z,42.55
2022-12-03T05:06:50.996Z,33.38
2022-12-03T05:09:53.543Z,39.55
2022-12-03T05:12:56.028Z,33.65
2022-12-03T05:15:59.886Z,39.72
2022-12-03T05:19:02.534Z,38.22
2022-12-03T05:22:05.069Z,32.50
2022-12-03T05:25:08.213Z,36.42
2022-12-03T05:28:10.721Z,37.22
2022-12-03T05:31:14.671Z,30.70
2022-12-03T05:34:17.216Z,39.70
2022-12-03T05:37:19.791Z,33.70
2022-12-03T05:40:22.378Z,38.28
2022-12-03T05:43:24.161Z,42.05
2022-12-03T05:46:28.121Z,35.50
2022-12-03T05:49:30.660Z,29.08
2022-12-03T05:52:33.170Z,38.45
2022-12-03T05:55:35.645Z,38.30
2022-12-03T05:58:38.229Z,38.22
2022-12-03T06:01:42.073Z,32.80
2022-12-03T06:04:44.565Z,36.78
2022-12-03T06:07:47.376Z,35.17
2022-12-03T06:10:50.015Z,40.75
2022-12-03T06:13:52.919Z,36.65
2022-12-03T06:16:56.802Z,35.33
2022-12-03T06:19:59.366Z,33.83
2022-12-03T06:23:01.830Z,38.65
2022-12-03T06:26:04.320Z,35.75
2022-12-03T06:29:06.857Z,36.70
2022-12-03T06:32:10.801Z,37.63
2022-12-03T06:35:13.377Z,38.72
2022-12-03T06:38:15.918Z,34.72
2022-12-03T06:41:18.424Z,39.90
2022-12-03T06:44:21.465Z,34.25
2022-12-03T06:47:25.369Z,35.17
2022-12-03T06:50:27.981Z,29.85
2022-12-03T06:53:30.520Z,43.50
2022-12-03T06:56:37.817Z,31.85
2022-12-03T06:59:41.717Z,39.58
2022-12-03T07:02:45.689Z,32.47
2022-12-03T07:05:48.252Z,28.75
2022-12-03T07:08:50.789Z,40.95
2022-12-03T07:11:53.358Z,43.17
2022-12-03T07:14:56.388Z,36.35
2022-12-03T07:18:00.447Z,34.05
2022-12-03T07:21:03.059Z,41.58
2022-12-03T07:24:05.963Z,39.30
2022-12-03T07:27:08.489Z,34.85
2022-12-03T07:30:12.539Z,39.17
2022-12-03T07:33:16.387Z,42.03
2022-12-03T07:36:18.861Z,32.63
2022-12-03T07:39:21.352Z,38.15
2022-12-03T07:42:23.931Z,39.20
2022-12-03T07:45:26.500Z,39.35
2022-12-03T07:48:30.326Z,39.30
2022-12-03T07:51:32.821Z,36.95
2022-12-03T07:54:35.385Z,35.50
2022-12-03T07:57:37.941Z,38.47
2022-12-03T08:00:40.479Z,36.90
2022-12-03T08:03:44.328Z,31.73
2022-12-03T08:06:46.857Z,42.33
2022-12-03T08:09:49.414Z,37.72
2022-12-03T08:12:52.528Z,42.63
2022-12-03T08:15:56.557Z,38.70
2022-12-03T08:19:00.496Z,41.45
2022-12-03T08:22:03.021Z,47.72
2022-12-03T08:25:07.642Z,48.17
2022-12-03T08:28:13.484Z,38.05
2022-12-03T08:31:19.926Z,43.20
2022-12-03T08:34:24.564Z,44.65
2022-12-03T08:37:27.115Z,48.33
2022-12-03T08:40:35.103Z,42.75
2022-12-03T08:43:41.876Z,44.67
2022-12-03T08:46:44.391Z,34.72
2022-12-03T08:49:49.079Z,43.47
2022-12-03T08:52:51.625Z,40.67
2022-12-03T08:55:54.757Z,45.97
2022-12-03T08:58:58.357Z,42.25
2022-12-03T09:02:00.877Z,37.60
2022-12-03T09:05:11.928Z,42.22
2022-12-03T09:08:14.507Z,37.95
2022-12-03T09:11:17.085Z,39.55
2022-12-03T09:14:21.094Z,41.33
2022-12-03T09:17:23.697Z,39.30
2022-12-03T09:20:27.544Z,43.45
2022-12-03T09:23:30.058Z,39.67
2022-12-03T09:26:32.613Z,31.35
2022-12-03T09:29:35.108Z,40.80
2022-12-03T09:32:37.658Z,39.17
2022-12-03T09:35:41.529Z,42.97
2022-12-03T09:38:47.599Z,38.17
2022-12-03T09:41:50.595Z,41.80
2022-12-03T09:44:53.535Z,38.83
2022-12-03T09:47:56.178Z,38.97
2022-12-03T09:51:00.079Z,34.42
2022-12-03T09:54:07.660Z,34.80
2022-12-03T10:00:18.675Z,36.08
2022-12-03T10:03:26.498Z,40.47
2022-12-03T10:06:33.444Z,39.67
2022-12-03T10:09:36.021Z,38.33
2022-12-03T10:12:38.541Z,34.80
2022-12-03T10:15:41.079Z,36.83
2022-12-03T10:29:57.026Z,11.10
2022-12-03T10:33:02.574Z,8.80
2022-12-03T10:36:15.734Z,10.25
2022-12-03T10:39:18.277Z,9.23
2022-12-03T10:42:20.893Z,6.47
2022-12-03T10:45:24.848Z,7.82
2022-12-03T10:48:27.460Z,6.95
2022-12-03T10:51:29.997Z,8.63
2022-12-03T10:54:32.785Z,14.40
2022-12-03T10:57:35.336Z,9.10
2022-12-03T12:27:33.289Z,17.10
2022-12-03T12:30:35.756Z,11.77
2022-12-03T12:39:33.937Z,12.23
2022-12-03T12:42:37.220Z,11.32
2022-12-03T12:45:41.061Z,11.48
2022-12-03T12:52:20.438Z,10.95
